map of LSMP home
LSMP - Airport
Location
City:  Payerne, Fribourg, Switzerland
Name:Payerne Airport
ICAO:LSMP

Details
Type:Airport (Flugplatz, Airfield)
Use:Military
Latitude:4650'36"N (46.843208)
Longitude:654'54"E (6.915058)
Datum:WGS 1984
Elevation:1465 ft (447 m)
Variation:2.05E (WMM2015 magnetic declination)
0.12 annual change
Runways:1
Longest:9376 × 130 ft (2858 × 39.5 m), paved

Time
Time Zone:UTC+1 (DST+2)
Local Time:

Weather
METAR:LSMP 141650Z 10004KT 070V130 9999 OVC016 10/08 Q1028 RMK WHT
TAF:LSMP 140925Z 1410/1516 VRB03KT 2500 BR SCT002 OVC014 PROB40
TEMPO 1412/1418 SCT020

Related Locations
Nearby:
Farthest:CHT: 12167 mi / 19582 km
Waitangi [Tuuta], CIT, NZ

Find:

   beyond  
but within

Other Information
Maps:
NOTAMs:
Links:
Sources:

  
  • flag of Switzerland
  • flag of Fribourg
  

Airport Diagram

Airport diagram for LSMP

Larger airport diagram (OBSOLETE) from NGA

Sectional Chart

Flight Planning
at skyvector.com

Satellite Image

Google Maps Satellite view

 

Copyright © 2004-2018 Karl L. Swartz. All rights reserved.
The Great Circle Mapper name and logo are trademarks of the Great Circle Mapper.
All other trademarks mentioned herein belong to their respective owners.
Please see credits for attibutions and further copyright information.

  Follow gcmap on Facebook Follow gcmap on Twitter Follow gcmap on Google+ GCmap on LinkedIn

hCard Microformat

Geo Microformat